sensor_id;sensor_type;location;lat;lon;timestamp;temperature;humidity
13223;DHT22;6676;45.192;5.722;2023-03-03T00:02:23;5.40;99.90
13223;DHT22;6676;45.192;5.722;2023-03-03T00:05:15;5.50;99.90
13223;DHT22;6676;45.192;5.722;2023-03-03T00:08:07;5.60;99.90
13223;DHT22;6676;45.192;5.722;2023-03-03T00:10:59;5.50;99.90
13223;DHT22;6676;45.192;5.722;2023-03-03T00:13:53;5.50;99.90
13223;DHT22;6676;45.192;5.722;2023-03-03T00:16:45;5.30;99.90
13223;DHT22;6676;45.192;5.722;2023-03-03T00:19:38;5.20;99.90
13223;DHT22;6676;45.192;5.722;2023-03-03T00:22:34;5.40;99.90
13223;DHT22;6676;45.192;5.722;2023-03-03T00:25:30;5.20;99.90
13223;DHT22;6676;45.192;5.722;2023-03-03T00:28:26;5.10;99.90
13223;DHT22;6676;45.192;5.722;2023-03-03T00:31:20;5.00;99.90
13223;DHT22;6676;45.192;5.722;2023-03-03T00:34:18;5.00;99.90
13223;DHT22;6676;45.192;5.722;2023-03-03T00:37:21;4.90;99.90
13223;DHT22;6676;45.192;5.722;2023-03-03T00:40:20;5.00;99.90
13223;DHT22;6676;45.192;5.722;2023-03-03T00:43:17;5.00;99.90
13223;DHT22;6676;45.192;5.722;2023-03-03T00:46:10;4.90;99.90
13223;DHT22;6676;45.192;5.722;2023-03-03T00:49:06;4.90;99.90
13223;DHT22;6676;45.192;5.722;2023-03-03T00:51:57;4.90;99.90
13223;DHT22;6676;45.192;5.722;2023-03-03T00:54:49;4.80;99.90
13223;DHT22;6676;45.192;5.722;2023-03-03T00:57:41;4.80;99.90
13223;DHT22;6676;45.192;5.722;2023-03-03T01:00:33;4.70;99.90
13223;DHT22;6676;45.192;5.722;2023-03-03T01:03:26;4.70;99.90
13223;DHT22;6676;45.192;5.722;2023-03-03T01:06:17;4.80;99.90
13223;DHT22;6676;45.192;5.722;2023-03-03T01:09:08;4.70;99.90
13223;DHT22;6676;45.192;5.722;2023-03-03T01:12:00;4.70;99.90
13223;DHT22;6676;45.192;5.722;2023-03-03T01:14:52;4.60;99.90
13223;DHT22;6676;45.192;5.722;2023-03-03T01:17:44;4.60;99.90
13223;DHT22;6676;45.192;5.722;2023-03-03T01:20:34;4.50;99.90
13223;DHT22;6676;45.192;5.722;2023-03-03T01:23:26;4.50;99.90
13223;DHT22;6676;45.192;5.722;2023-03-03T01:26:19;4.50;99.90
13223;DHT22;6676;45.192;5.722;2023-03-03T01:29:10;4.50;99.90
13223;DHT22;6676;45.192;5.722;2023-03-03T01:32:02;4.40;99.90
13223;DHT22;6676;45.192;5.722;2023-03-03T01:34:53;4.40;99.90
13223;DHT22;6676;45.192;5.722;2023-03-03T01:37:45;4.40;99.90
13223;DHT22;6676;45.192;5.722;2023-03-03T01:40:37;4.40;99.90
13223;DHT22;6676;45.192;5.722;2023-03-03T01:43:29;4.50;99.90
13223;DHT22;6676;45.192;5.722;2023-03-03T01:49:48;4.40;99.90
13223;DHT22;6676;45.192;5.722;2023-03-03T01:52:47;4.40;99.90
13223;DHT22;6676;45.192;5.722;2023-03-03T01:55:41;4.40;99.90
13223;DHT22;6676;45.192;5.722;2023-03-03T01:58:35;4.40;99.90
13223;DHT22;6676;45.192;5.722;2023-03-03T02:01:28;4.40;99.90
13223;DHT22;6676;45.192;5.722;2023-03-03T02:04:21;4.40;99.90
13223;DHT22;6676;45.192;5.722;2023-03-03T02:07:14;4.40;99.90
13223;DHT22;6676;45.192;5.722;2023-03-03T02:10:10;4.30;99.90
13223;DHT22;6676;45.192;5.722;2023-03-03T02:13:02;4.30;99.90
13223;DHT22;6676;45.192;5.722;2023-03-03T02:15:54;4.30;99.90
13223;DHT22;6676;45.192;5.722;2023-03-03T02:18:46;4.40;99.90
13223;DHT22;6676;45.192;5.722;2023-03-03T02:21:37;4.40;99.90
13223;DHT22;6676;45.192;5.722;2023-03-03T02:24:32;4.30;99.90
13223;DHT22;6676;45.192;5.722;2023-03-03T02:27:26;4.40;99.90
13223;DHT22;6676;45.192;5.722;2023-03-03T02:30:20;4.30;99.90
13223;DHT22;6676;45.192;5.722;2023-03-03T02:33:12;4.20;99.90
13223;DHT22;6676;45.192;5.722;2023-03-03T02:36:05;4.20;99.90
13223;DHT22;6676;45.192;5.722;2023-03-03T02:39:07;4.20;99.90
13223;DHT22;6676;45.192;5.722;2023-03-03T02:42:01;4.20;99.90
13223;DHT22;6676;45.192;5.722;2023-03-03T02:44:55;4.20;99.90
13223;DHT22;6676;45.192;5.722;2023-03-03T02:47:50;4.10;99.90
13223;DHT22;6676;45.192;5.722;2023-03-03T02:50:42;4.10;99.90
13223;DHT22;6676;45.192;5.722;2023-03-03T02:53:34;4.10;99.90
13223;DHT22;6676;45.192;5.722;2023-03-03T02:56:26;4.10;99.90
13223;DHT22;6676;45.192;5.722;2023-03-03T02:59:18;4.10;99.90
13223;DHT22;6676;45.192;5.722;2023-03-03T03:02:11;4.10;99.90
13223;DHT22;6676;45.192;5.722;2023-03-03T03:05:03;4.00;99.90
13223;DHT22;6676;45.192;5.722;2023-03-03T03:07:54;4.00;99.90
13223;DHT22;6676;45.192;5.722;2023-03-03T03:10:46;4.00;99.90
13223;DHT22;6676;45.192;5.722;2023-03-03T03:13:37;4.00;99.90
13223;DHT22;6676;45.192;5.722;2023-03-03T03:16:29;4.10;99.90
13223;DHT22;6676;45.192;5.722;2023-03-03T03:19:21;4.10;99.90
13223;DHT22;6676;45.192;5.722;2023-03-03T03:22:12;4.10;99.90
13223;DHT22;6676;45.192;5.722;2023-03-03T03:25:04;4.00;99.90
13223;DHT22;6676;45.192;5.722;2023-03-03T03:27:55;3.90;99.90
13223;DHT22;6676;45.192;5.722;2023-03-03T03:30:47;4.00;99.90
13223;DHT22;6676;45.192;5.722;2023-03-03T03:33:41;3.90;99.90
13223;DHT22;6676;45.192;5.722;2023-03-03T03:36:33;4.00;99.90
13223;DHT22;6676;45.192;5.722;2023-03-03T03:39:25;4.00;99.90
13223;DHT22;6676;45.192;5.722;2023-03-03T03:42:17;4.00;99.90
13223;DHT22;6676;45.192;5.722;2023-03-03T03:45:10;4.10;99.90
13223;DHT22;6676;45.192;5.722;2023-03-03T03:48:06;4.10;99.90
13223;DHT22;6676;45.192;5.722;2023-03-03T03:50:57;4.00;99.90
13223;DHT22;6676;45.192;5.722;2023-03-03T03:53:53;4.10;99.90
13223;DHT22;6676;45.192;5.722;2023-03-03T03:56:44;4.10;99.90
13223;DHT22;6676;45.192;5.722;2023-03-03T03:59:36;4.10;99.90
13223;DHT22;6676;45.192;5.722;2023-03-03T04:02:28;4.10;99.90
13223;DHT22;6676;45.192;5.722;2023-03-03T04:05:21;4.10;99.90
13223;DHT22;6676;45.192;5.722;2023-03-03T04:08:12;4.10;99.90
13223;DHT22;6676;45.192;5.722;2023-03-03T04:11:04;4.10;99.90
13223;DHT22;6676;45.192;5.722;2023-03-03T04:13:56;4.10;99.90
13223;DHT22;6676;45.192;5.722;2023-03-03T04:16:48;4.10;99.90
13223;DHT22;6676;45.192;5.722;2023-03-03T04:19:40;4.10;99.90
13223;DHT22;6676;45.192;5.722;2023-03-03T04:22:31;4.10;99.90
13223;DHT22;6676;45.192;5.722;2023-03-03T04:25:25;4.00;99.90
13223;DHT22;6676;45.192;5.722;2023-03-03T04:28:17;4.00;99.90
13223;DHT22;6676;45.192;5.722;2023-03-03T04:31:09;4.10;99.90
13223;DHT22;6676;45.192;5.722;2023-03-03T04:34:00;4.00;99.90
13223;DHT22;6676;45.192;5.722;2023-03-03T04:36:52;4.10;99.90
13223;DHT22;6676;45.192;5.722;2023-03-03T04:39:44;4.10;99.90
13223;DHT22;6676;45.192;5.722;2023-03-03T04:42:36;4.10;99.90
13223;DHT22;6676;45.192;5.722;2023-03-03T04:45:28;4.10;99.90
13223;DHT22;6676;45.192;5.722;2023-03-03T04:48:20;4.10;99.90
13223;DHT22;6676;45.192;5.722;2023-03-03T04:51:11;4.10;99.90
13223;DHT22;6676;45.192;5.722;2023-03-03T04:54:05;4.20;99.90
13223;DHT22;6676;45.192;5.722;2023-03-03T04:57:00;4.20;99.90
13223;DHT22;6676;45.192;5.722;2023-03-03T04:59:51;4.10;99.90
13223;DHT22;6676;45.192;5.722;2023-03-03T05:02:43;4.10;99.90
13223;DHT22;6676;45.192;5.722;2023-03-03T05:05:36;4.20;99.90
13223;DHT22;6676;45.192;5.722;2023-03-03T05:08:27;4.20;99.90
13223;DHT22;6676;45.192;5.722;2023-03-03T05:11:26;4.20;99.90
13223;DHT22;6676;45.192;5.722;2023-03-03T05:14:16;4.20;99.90
13223;DHT22;6676;45.192;5.722;2023-03-03T05:17:07;4.20;99.90
13223;DHT22;6676;45.192;5.722;2023-03-03T05:20:00;4.10;99.90
13223;DHT22;6676;45.192;5.722;2023-03-03T05:22:53;4.10;99.90
13223;DHT22;6676;45.192;5.722;2023-03-03T05:25:47;4.20;99.90
13223;DHT22;6676;45.192;5.722;2023-03-03T05:28:38;4.40;99.90
13223;DHT22;6676;45.192;5.722;2023-03-03T05:31:29;4.30;99.90
13223;DHT22;6676;45.192;5.722;2023-03-03T05:34:21;4.30;99.90
13223;DHT22;6676;45.192;5.722;2023-03-03T05:37:12;4.30;99.90
13223;DHT22;6676;45.192;5.722;2023-03-03T05:40:06;4.30;99.90
13223;DHT22;6676;45.192;5.722;2023-03-03T05:42:57;4.30;99.90
13223;DHT22;6676;45.192;5.722;2023-03-03T05:45:54;4.30;99.90
13223;DHT22;6676;45.192;5.722;2023-03-03T05:51:26;4.50;99.90
13223;DHT22;6676;45.192;5.722;2023-03-03T05:54:18;4.40;99.90
13223;DHT22;6676;45.192;5.722;2023-03-03T05:57:09;4.40;99.90
13223;DHT22;6676;45.192;5.722;2023-03-03T06:00:01;4.40;99.90
13223;DHT22;6676;45.192;5.722;2023-03-03T06:02:54;4.30;99.90
13223;DHT22;6676;45.192;5.722;2023-03-03T06:05:46;4.30;99.90
13223;DHT22;6676;45.192;5.722;2023-03-03T06:08:38;4.40;99.90
13223;DHT22;6676;45.192;5.722;2023-03-03T06:11:30;4.50;99.90
13223;DHT22;6676;45.192;5.722;2023-03-03T06:14:22;4.40;99.90
13223;DHT22;6676;45.192;5.722;2023-03-03T06:17:15;4.40;99.90
13223;DHT22;6676;45.192;5.722;2023-03-03T06:20:09;4.40;99.90
13223;DHT22;6676;45.192;5.722;2023-03-03T06:23:10;4.40;99.90
13223;DHT22;6676;45.192;5.722;2023-03-03T06:26:05;4.50;99.90
13223;DHT22;6676;45.192;5.722;2023-03-03T06:28:57;4.50;99.90
13223;DHT22;6676;45.192;5.722;2023-03-03T06:31:48;4.70;99.90
13223;DHT22;6676;45.192;5.722;2023-03-03T06:34:40;4.70;99.90
13223;DHT22;6676;45.192;5.722;2023-03-03T06:37:33;4.90;99.90
13223;DHT22;6676;45.192;5.722;2023-03-03T06:40:25;4.70;99.90
13223;DHT22;6676;45.192;5.722;2023-03-03T06:43:17;4.70;99.90
13223;DHT22;6676;45.192;5.722;2023-03-03T06:46:10;4.70;99.90
13223;DHT22;6676;45.192;5.722;2023-03-03T06:49:02;4.70;99.90
13223;DHT22;6676;45.192;5.722;2023-03-03T06:51:54;4.70;99.90
13223;DHT22;6676;45.192;5.722;2023-03-03T06:54:45;4.70;99.90
13223;DHT22;6676;45.192;5.722;2023-03-03T06:57:48;4.80;99.90
13223;DHT22;6676;45.192;5.722;2023-03-03T07:00:41;4.80;99.90
13223;DHT22;6676;45.192;5.722;2023-03-03T07:03:34;4.80;99.90
13223;DHT22;6676;45.192;5.722;2023-03-03T07:06:27;4.90;99.90
13223;DHT22;6676;45.192;5.722;2023-03-03T07:09:22;4.90;99.90
13223;DHT22;6676;45.192;5.722;2023-03-03T07:12:17;5.00;99.90
13223;DHT22;6676;45.192;5.722;2023-03-03T07:15:16;5.10;99.90
13223;DHT22;6676;45.192;5.722;2023-03-03T07:21:36;5.20;99.90
13223;DHT22;6676;45.192;5.722;2023-03-03T07:24:29;5.20;99.90
13223;DHT22;6676;45.192;5.722;2023-03-03T07:27:28;5.20;99.90
13223;DHT22;6676;45.192;5.722;2023-03-03T07:30:24;5.30;99.90
13223;DHT22;6676;45.192;5.722;2023-03-03T07:33:24;5.20;99.90
13223;DHT22;6676;45.192;5.722;2023-03-03T07:36:26;5.30;99.90
13223;DHT22;6676;45.192;5.722;2023-03-03T07:39:26;5.30;99.90
13223;DHT22;6676;45.192;5.722;2023-03-03T07:42:24;5.40;99.90
13223;DHT22;6676;45.192;5.722;2023-03-03T07:45:28;5.50;99.90
13223;DHT22;6676;45.192;5.722;2023-03-03T07:48:29;5.50;99.90
13223;DHT22;6676;45.192;5.722;2023-03-03T07:51:22;5.50;99.90
13223;DHT22;6676;45.192;5.722;2023-03-03T07:54:31;5.50;99.90
13223;DHT22;6676;45.192;5.722;2023-03-03T07:57:25;5.60;99.90
13223;DHT22;6676;45.192;5.722;2023-03-03T08:03:50;5.60;99.90
13223;DHT22;6676;45.192;5.722;2023-03-03T08:06:53;5.60;99.90
13223;DHT22;6676;45.192;5.722;2023-03-03T08:09:47;5.50;99.90
13223;DHT22;6676;45.192;5.722;2023-03-03T08:12:44;5.60;99.90
13223;DHT22;6676;45.192;5.722;2023-03-03T08:15:39;5.60;99.90
13223;DHT22;6676;45.192;5.722;2023-03-03T08:18:36;5.80;99.90
13223;DHT22;6676;45.192;5.722;2023-03-03T08:21:29;5.80;99.90
13223;DHT22;6676;45.192;5.722;2023-03-03T08:24:21;5.80;99.90
13223;DHT22;6676;45.192;5.722;2023-03-03T08:27:13;5.80;99.90
13223;DHT22;6676;45.192;5.722;2023-03-03T08:30:05;5.90;99.90
13223;DHT22;6676;45.192;5.722;2023-03-03T08:32:57;5.90;99.90
13223;DHT22;6676;45.192;5.722;2023-03-03T08:35:50;6.00;99.90
13223;DHT22;6676;45.192;5.722;2023-03-03T08:38:42;6.10;99.90
13223;DHT22;6676;45.192;5.722;2023-03-03T08:41:35;6.10;99.90
13223;DHT22;6676;45.192;5.722;2023-03-03T08:44:29;6.20;99.90
13223;DHT22;6676;45.192;5.722;2023-03-03T08:47:21;6.20;99.90
13223;DHT22;6676;45.192;5.722;2023-03-03T08:52:53;6.40;99.90
13223;DHT22;6676;45.192;5.722;2023-03-03T08:55:46;6.40;99.90
13223;DHT22;6676;45.192;5.722;2023-03-03T08:58:38;6.40;99.90
13223;DHT22;6676;45.192;5.722;2023-03-03T09:01:33;6.40;99.90
13223;DHT22;6676;45.192;5.722;2023-03-03T09:04:25;6.50;99.90
13223;DHT22;6676;45.192;5.722;2023-03-03T09:07:16;6.60;99.90
13223;DHT22;6676;45.192;5.722;2023-03-03T09:10:28;6.50;99.90
13223;DHT22;6676;45.192;5.722;2023-03-03T09:13:22;6.40;99.90
13223;DHT22;6676;45.192;5.722;2023-03-03T09:16:21;6.40;99.90
13223;DHT22;6676;45.192;5.722;2023-03-03T09:19:23;6.40;99.90
13223;DHT22;6676;45.192;5.722;2023-03-03T09:22:20;6.50;99.90
13223;DHT22;6676;45.192;5.722;2023-03-03T09:25:19;6.70;99.90
13223;DHT22;6676;45.192;5.722;2023-03-03T09:28:23;6.60;99.90
13223;DHT22;6676;45.192;5.722;2023-03-03T09:31:30;6.80;99.90
13223;DHT22;6676;45.192;5.722;2023-03-03T09:34:26;6.90;99.90
13223;DHT22;6676;45.192;5.722;2023-03-03T09:37:22;6.90;99.90
13223;DHT22;6676;45.192;5.722;2023-03-03T09:40:25;6.90;99.90
13223;DHT22;6676;45.192;5.722;2023-03-03T09:43:11;7.00;99.90
13223;DHT22;6676;45.192;5.722;2023-03-03T09:46:08;7.00;99.90
13223;DHT22;6676;45.192;5.722;2023-03-03T09:52:21;7.10;99.90
13223;DHT22;6676;45.192;5.722;2023-03-03T09:55:25;7.30;99.90
13223;DHT22;6676;45.192;5.722;2023-03-03T09:58:28;7.30;99.90
13223;DHT22;6676;45.192;5.722;2023-03-03T10:05:16;7.00;99.90
13223;DHT22;6676;45.192;5.722;2023-03-03T10:11:53;7.30;99.90
13223;DHT22;6676;45.192;5.722;2023-03-03T10:14:59;7.40;99.90
13223;DHT22;6676;45.192;5.722;2023-03-03T10:17:51;7.40;99.90
13223;DHT22;6676;45.192;5.722;2023-03-03T10:20:55;7.40;99.90
13223;DHT22;6676;45.192;5.722;2023-03-03T10:24:08;7.40;99.90
13223;DHT22;6676;45.192;5.722;2023-03-03T10:27:15;7.50;99.90
13223;DHT22;6676;45.192;5.722;2023-03-03T10:30:09;7.60;99.90
13223;DHT22;6676;45.192;5.722;2023-03-03T10:33:04;7.80;99.90
13223;DHT22;6676;45.192;5.722;2023-03-03T10:39:21;7.80;99.90
13223;DHT22;6676;45.192;5.722;2023-03-03T10:42:31;7.90;99.90
13223;DHT22;6676;45.192;5.722;2023-03-03T11:02:43;8.20;99.90
13223;DHT22;6676;45.192;5.722;2023-03-03T11:08:47;8.30;99.90
13223;DHT22;6676;45.192;5.722;2023-03-03T11:11:42;8.30;99.90
13223;DHT22;6676;45.192;5.722;2023-03-03T11:14:37;8.20;99.90
13223;DHT22;6676;45.192;5.722;2023-03-03T11:17:36;8.20;99.90
13223;DHT22;6676;45.192;5.722;2023-03-03T11:20:44;8.10;99.90
13223;DHT22;6676;45.192;5.722;2023-03-03T11:27:12;7.90;99.90
13223;DHT22;6676;45.192;5.722;2023-03-03T11:30:07;7.90;99.90
13223;DHT22;6676;45.192;5.722;2023-03-03T11:33:01;7.70;99.90
13223;DHT22;6676;45.192;5.722;2023-03-03T11:36:00;7.60;99.90
13223;DHT22;6676;45.192;5.722;2023-03-03T11:38:56;7.50;99.90
13223;DHT22;6676;45.192;5.722;2023-03-03T11:41:54;7.40;99.90
13223;DHT22;6676;45.192;5.722;2023-03-03T11:47:44;7.30;99.90
13223;DHT22;6676;45.192;5.722;2023-03-03T11:50:39;7.40;99.90
13223;DHT22;6676;45.192;5.722;2023-03-03T11:53:39;7.50;99.90
13223;DHT22;6676;45.192;5.722;2023-03-03T11:56:37;7.60;99.90
13223;DHT22;6676;45.192;5.722;2023-03-03T11:59:47;7.60;99.90
13223;DHT22;6676;45.192;5.722;2023-03-03T12:02:54;7.70;99.90
13223;DHT22;6676;45.192;5.722;2023-03-03T12:05:57;7.80;99.90
13223;DHT22;6676;45.192;5.722;2023-03-03T12:09:19;7.90;99.90
13223;DHT22;6676;45.192;5.722;2023-03-03T12:12:14;7.80;99.90
13223;DHT22;6676;45.192;5.722;2023-03-03T12:15:14;7.80;99.90
13223;DHT22;6676;45.192;5.722;2023-03-03T12:18:15;7.60;99.90
13223;DHT22;6676;45.192;5.722;2023-03-03T12:21:18;7.70;99.90
13223;DHT22;6676;45.192;5.722;2023-03-03T12:24:20;7.60;99.90
13223;DHT22;6676;45.192;5.722;2023-03-03T12:27:27;7.80;99.90
13223;DHT22;6676;45.192;5.722;2023-03-03T12:30:27;7.70;99.90
13223;DHT22;6676;45.192;5.722;2023-03-03T12:33:25;7.80;99.90
13223;DHT22;6676;45.192;5.722;2023-03-03T12:36:34;8.00;99.90
13223;DHT22;6676;45.192;5.722;2023-03-03T12:39:37;8.00;99.90
13223;DHT22;6676;45.192;5.722;2023-03-03T12:46:12;7.80;99.90
13223;DHT22;6676;45.192;5.722;2023-03-03T12:49:05;7.80;99.90
13223;DHT22;6676;45.192;5.722;2023-03-03T12:52:14;7.80;99.90
13223;DHT22;6676;45.192;5.722;2023-03-03T12:55:04;7.80;99.90
13223;DHT22;6676;45.192;5.722;2023-03-03T12:58:00;7.70;99.90
13223;DHT22;6676;45.192;5.722;2023-03-03T13:00:55;7.70;99.90
13223;DHT22;6676;45.192;5.722;2023-03-03T13:03:54;7.70;99.90
13223;DHT22;6676;45.192;5.722;2023-03-03T13:06:50;7.70;99.90
13223;DHT22;6676;45.192;5.722;2023-03-03T13:09:51;7.60;99.90
13223;DHT22;6676;45.192;5.722;2023-03-03T13:12:47;7.60;99.90
13223;DHT22;6676;45.192;5.722;2023-03-03T13:15:42;7.70;99.90
13223;DHT22;6676;45.192;5.722;2023-03-03T13:18:46;7.60;99.90
13223;DHT22;6676;45.192;5.722;2023-03-03T13:21:57;7.60;99.90
13223;DHT22;6676;45.192;5.722;2023-03-03T13:24:57;7.60;99.90
13223;DHT22;6676;45.192;5.722;2023-03-03T13:27:52;7.50;99.90
13223;DHT22;6676;45.192;5.722;2023-03-03T13:30:47;7.60;99.90
13223;DHT22;6676;45.192;5.722;2023-03-03T13:33:40;7.60;99.90
13223;DHT22;6676;45.192;5.722;2023-03-03T13:36:46;7.60;99.90
13223;DHT22;6676;45.192;5.722;2023-03-03T13:39:44;7.60;99.90
13223;DHT22;6676;45.192;5.722;2023-03-03T13:42:41;7.50;99.90
13223;DHT22;6676;45.192;5.722;2023-03-03T13:45:40;7.70;99.90
13223;DHT22;6676;45.192;5.722;2023-03-03T13:52:16;7.70;99.90
13223;DHT22;6676;45.192;5.722;2023-03-03T13:55:17;7.70;99.90
13223;DHT22;6676;45.192;5.722;2023-03-03T13:58:16;7.80;99.90
13223;DHT22;6676;45.192;5.722;2023-03-03T14:04:38;7.80;99.90
13223;DHT22;6676;45.192;5.722;2023-03-03T14:07:34;7.90;99.90
13223;DHT22;6676;45.192;5.722;2023-03-03T14:10:29;7.80;99.90
13223;DHT22;6676;45.192;5.722;2023-03-03T14:13:28;7.90;99.90
13223;DHT22;6676;45.192;5.722;2023-03-03T14:16:29;7.90;99.90
13223;DHT22;6676;45.192;5.722;2023-03-03T14:19:20;7.90;99.90
13223;DHT22;6676;45.192;5.722;2023-03-03T14:22:21;7.90;99.90
13223;DHT22;6676;45.192;5.722;2023-03-03T14:25:14;8.10;99.90
13223;DHT22;6676;45.192;5.722;2023-03-03T14:28:11;8.10;99.90
13223;DHT22;6676;45.192;5.722;2023-03-03T14:31:13;8.30;99.90
13223;DHT22;6676;45.192;5.722;2023-03-03T14:34:11;8.20;99.90
13223;DHT22;6676;45.192;5.722;2023-03-03T14:37:09;8.20;99.90
13223;DHT22;6676;45.192;5.722;2023-03-03T14:40:15;8.20;99.90
13223;DHT22;6676;45.192;5.722;2023-03-03T14:43:19;8.20;99.90
13223;DHT22;6676;45.192;5.722;2023-03-03T14:46:32;8.20;99.90
13223;DHT22;6676;45.192;5.722;2023-03-03T14:49:31;8.30;99.90
13223;DHT22;6676;45.192;5.722;2023-03-03T14:52:33;8.20;99.90
13223;DHT22;6676;45.192;5.722;2023-03-03T14:55:34;8.30;99.90
13223;DHT22;6676;45.192;5.722;2023-03-03T14:58:37;8.20;99.90
13223;DHT22;6676;45.192;5.722;2023-03-03T15:01:35;8.30;99.90
13223;DHT22;6676;45.192;5.722;2023-03-03T15:04:28;8.40;99.90
13223;DHT22;6676;45.192;5.722;2023-03-03T15:07:27;8.50;99.90
13223;DHT22;6676;45.192;5.722;2023-03-03T15:10:32;8.50;99.90
13223;DHT22;6676;45.192;5.722;2023-03-03T15:13:33;8.40;99.90
13223;DHT22;6676;45.192;5.722;2023-03-03T15:16:31;8.30;99.90
13223;DHT22;6676;45.192;5.722;2023-03-03T15:19:47;8.30;99.90
13223;DHT22;6676;45.192;5.722;2023-03-03T15:22:46;8.20;99.90
13223;DHT22;6676;45.192;5.722;2023-03-03T15:25:38;8.20;99.90
13223;DHT22;6676;45.192;5.722;2023-03-03T15:28:41;8.10;99.90
13223;DHT22;6676;45.192;5.722;2023-03-03T15:31:39;8.20;99.90
13223;DHT22;6676;45.192;5.722;2023-03-03T15:34:42;8.20;99.90
13223;DHT22;6676;45.192;5.722;2023-03-03T15:37:39;8.10;99.90
13223;DHT22;6676;45.192;5.722;2023-03-03T15:40:34;8.10;99.90
13223;DHT22;6676;45.192;5.722;2023-03-03T15:44:02;8.10;99.90
13223;DHT22;6676;45.192;5.722;2023-03-03T15:47:06;8.00;99.90
13223;DHT22;6676;45.192;5.722;2023-03-03T15:53:25;8.00;99.90
13223;DHT22;6676;45.192;5.722;2023-03-03T15:56:31;8.00;99.90
13223;DHT22;6676;45.192;5.722;2023-03-03T16:15:51;7.90;99.90
13223;DHT22;6676;45.192;5.722;2023-03-03T16:18:51;8.00;99.90
13223;DHT22;6676;45.192;5.722;2023-03-03T16:21:58;8.00;99.90
13223;DHT22;6676;45.192;5.722;2023-03-03T16:24:58;8.00;99.90
13223;DHT22;6676;45.192;5.722;2023-03-03T16:27:54;7.90;99.90
13223;DHT22;6676;45.192;5.722;2023-03-03T16:30:51;7.90;99.90
13223;DHT22;6676;45.192;5.722;2023-03-03T16:33:45;7.90;99.90
13223;DHT22;6676;45.192;5.722;2023-03-03T16:36:43;7.90;99.90
13223;DHT22;6676;45.192;5.722;2023-03-03T16:39:41;7.90;99.90
13223;DHT22;6676;45.192;5.722;2023-03-03T16:42:34;7.90;99.90
13223;DHT22;6676;45.192;5.722;2023-03-03T16:45:28;7.80;99.90
13223;DHT22;6676;45.192;5.722;2023-03-03T16:48:43;7.80;99.90
13223;DHT22;6676;45.192;5.722;2023-03-03T16:55:28;7.80;99.90
13223;DHT22;6676;45.192;5.722;2023-03-03T16:58:29;7.80;99.90
13223;DHT22;6676;45.192;5.722;2023-03-03T17:01:26;7.80;99.90
13223;DHT22;6676;45.192;5.722;2023-03-03T17:04:28;7.80;99.90
13223;DHT22;6676;45.192;5.722;2023-03-03T17:07:30;7.80;99.90
13223;DHT22;6676;45.192;5.722;2023-03-03T17:10:28;7.70;99.90
13223;DHT22;6676;45.192;5.722;2023-03-03T17:13:30;7.70;99.90
13223;DHT22;6676;45.192;5.722;2023-03-03T17:16:27;7.70;99.90
13223;DHT22;6676;45.192;5.722;2023-03-03T17:19:34;7.80;99.90
13223;DHT22;6676;45.192;5.722;2023-03-03T17:22:31;7.70;99.90
13223;DHT22;6676;45.192;5.722;2023-03-03T17:25:27;7.70;99.90
13223;DHT22;6676;45.192;5.722;2023-03-03T17:28:33;7.60;99.90
13223;DHT22;6676;45.192;5.722;2023-03-03T17:34:27;7.60;99.90
13223;DHT22;6676;45.192;5.722;2023-03-03T17:37:26;7.60;99.90
13223;DHT22;6676;45.192;5.722;2023-03-03T17:40:26;7.50;99.90
13223;DHT22;6676;45.192;5.722;2023-03-03T17:43:22;7.50;99.90
13223;DHT22;6676;45.192;5.722;2023-03-03T17:46:17;7.50;99.90
13223;DHT22;6676;45.192;5.722;2023-03-03T17:49:30;7.50;99.90
13223;DHT22;6676;45.192;5.722;2023-03-03T17:55:51;7.50;99.90
13223;DHT22;6676;45.192;5.722;2023-03-03T17:59:16;7.40;99.90
13223;DHT22;6676;45.192;5.722;2023-03-03T18:02:51;7.50;99.90
13223;DHT22;6676;45.192;5.722;2023-03-03T18:06:08;7.40;99.90
13223;DHT22;6676;45.192;5.722;2023-03-03T18:09:13;7.40;99.90
13223;DHT22;6676;45.192;5.722;2023-03-03T18:12:12;7.40;99.90
13223;DHT22;6676;45.192;5.722;2023-03-03T18:18:08;7.40;99.90
13223;DHT22;6676;45.192;5.722;2023-03-03T18:21:02;7.40;99.90
13223;DHT22;6676;45.192;5.722;2023-03-03T18:27:31;7.40;99.90
13223;DHT22;6676;45.192;5.722;2023-03-03T18:30:27;7.30;99.90
13223;DHT22;6676;45.192;5.722;2023-03-03T18:33:40;7.30;99.90
13223;DHT22;6676;45.192;5.722;2023-03-03T18:36:38;7.30;99.90
13223;DHT22;6676;45.192;5.722;2023-03-03T18:39:43;7.30;99.90
13223;DHT22;6676;45.192;5.722;2023-03-03T18:45:46;7.20;99.90
13223;DHT22;6676;45.192;5.722;2023-03-03T18:48:48;7.20;99.90
13223;DHT22;6676;45.192;5.722;2023-03-03T18:51:51;7.20;99.90
13223;DHT22;6676;45.192;5.722;2023-03-03T18:54:57;7.20;99.90
13223;DHT22;6676;45.192;5.722;2023-03-03T18:57:37;7.20;99.90
13223;DHT22;6676;45.192;5.722;2023-03-03T19:00:29;7.20;99.90
13223;DHT22;6676;45.192;5.722;2023-03-03T19:03:27;7.10;99.90
13223;DHT22;6676;45.192;5.722;2023-03-03T19:06:31;7.20;99.90
13223;DHT22;6676;45.192;5.722;2023-03-03T19:09:49;7.20;99.90
13223;DHT22;6676;45.192;5.722;2023-03-03T19:12:48;7.20;99.90
13223;DHT22;6676;45.192;5.722;2023-03-03T19:15:52;7.20;99.90
13223;DHT22;6676;45.192;5.722;2023-03-03T19:22:23;7.10;99.90
13223;DHT22;6676;45.192;5.722;2023-03-03T19:25:21;7.10;99.90
13223;DHT22;6676;45.192;5.722;2023-03-03T19:28:33;7.10;99.90
13223;DHT22;6676;45.192;5.722;2023-03-03T19:31:31;7.10;99.90
13223;DHT22;6676;45.192;5.722;2023-03-03T19:34:25;7.00;99.90
13223;DHT22;6676;45.192;5.722;2023-03-03T19:37:36;7.00;99.90
13223;DHT22;6676;45.192;5.722;2023-03-03T19:40:35;7.10;99.90
13223;DHT22;6676;45.192;5.722;2023-03-03T19:43:31;7.00;99.90
13223;DHT22;6676;45.192;5.722;2023-03-03T19:46:32;7.00;99.90
13223;DHT22;6676;45.192;5.722;2023-03-03T19:49:33;7.00;99.90
13223;DHT22;6676;45.192;5.722;2023-03-03T19:52:28;7.00;99.90
13223;DHT22;6676;45.192;5.722;2023-03-03T19:55:25;7.00;99.90
13223;DHT22;6676;45.192;5.722;2023-03-03T19:58:26;7.00;99.90
13223;DHT22;6676;45.192;5.722;2023-03-03T20:01:19;6.90;99.90
13223;DHT22;6676;45.192;5.722;2023-03-03T20:04:24;7.00;99.90
13223;DHT22;6676;45.192;5.722;2023-03-03T20:07:24;6.90;99.90
13223;DHT22;6676;45.192;5.722;2023-03-03T20:10:29;6.90;99.90
13223;DHT22;6676;45.192;5.722;2023-03-03T20:13:40;6.80;99.90
13223;DHT22;6676;45.192;5.722;2023-03-03T20:16:36;6.90;99.90
13223;DHT22;6676;45.192;5.722;2023-03-03T20:22:24;6.80;99.90
13223;DHT22;6676;45.192;5.722;2023-03-03T20:25:23;6.80;99.90
13223;DHT22;6676;45.192;5.722;2023-03-03T20:28:39;6.80;99.90
13223;DHT22;6676;45.192;5.722;2023-03-03T20:31:42;6.80;99.90
13223;DHT22;6676;45.192;5.722;2023-03-03T20:34:40;6.80;99.90
13223;DHT22;6676;45.192;5.722;2023-03-03T20:37:36;6.80;99.90
13223;DHT22;6676;45.192;5.722;2023-03-03T20:40:33;6.90;99.90
13223;DHT22;6676;45.192;5.722;2023-03-03T20:43:32;6.80;99.90
13223;DHT22;6676;45.192;5.722;2023-03-03T20:49:32;6.90;99.90
13223;DHT22;6676;45.192;5.722;2023-03-03T20:52:31;6.90;99.90
13223;DHT22;6676;45.192;5.722;2023-03-03T20:55:26;6.90;99.90
13223;DHT22;6676;45.192;5.722;2023-03-03T20:58:22;6.90;99.90
13223;DHT22;6676;45.192;5.722;2023-03-03T21:01:16;6.90;99.90
13223;DHT22;6676;45.192;5.722;2023-03-03T21:04:20;6.90;99.90
13223;DHT22;6676;45.192;5.722;2023-03-03T21:07:23;7.00;99.90
13223;DHT22;6676;45.192;5.722;2023-03-03T21:10:18;6.90;99.90
13223;DHT22;6676;45.192;5.722;2023-03-03T21:13:27;6.90;99.90